createdAt,value
2019-02-24T00:00:01.714Z,-1.92
2019-02-24T00:01:01.770Z,-1.86
2019-02-24T00:02:01.679Z,-1.92
2019-02-24T00:03:01.694Z,-1.93
2019-02-24T00:04:01.682Z,-1.93
2019-02-24T00:05:01.667Z,-2.03
2019-02-24T00:06:01.704Z,-2.07
2019-02-24T00:07:01.633Z,-2.03
2019-02-24T00:08:01.643Z,-2.03
2019-02-24T00:09:01.626Z,-1.98
2019-02-24T00:10:01.595Z,-1.95
2019-02-24T00:11:01.588Z,-2.01
2019-02-24T00:12:01.614Z,-2.00
2019-02-24T00:13:01.579Z,-1.96
2019-02-24T00:14:01.599Z,-1.96
2019-02-24T00:15:01.610Z,-2.03
2019-02-24T00:16:01.530Z,-2.07
2019-02-24T00:17:01.576Z,-2.03
2019-02-24T00:18:01.510Z,-2.03
2019-02-24T00:19:01.533Z,-2.03
2019-02-24T00:20:01.497Z,-2.07
2019-02-24T00:21:01.528Z,-2.06
2019-02-24T00:22:01.465Z,-2.13
2019-02-24T00:23:01.553Z,-2.16
2019-02-24T00:24:01.459Z,-2.18
2019-02-24T00:25:01.485Z,-2.22
2019-02-24T00:26:01.425Z,-2.14
2019-02-24T00:27:01.426Z,-2.24
2019-02-24T00:28:07.106Z,-2.25
2019-02-24T00:29:02.437Z,-2.21
2019-02-24T00:30:01.372Z,-2.21
2019-02-24T00:31:01.362Z,-2.24
2019-02-24T00:32:01.349Z,-2.24
2019-02-24T00:33:01.432Z,-2.21
2019-02-24T00:34:01.344Z,-2.22
2019-02-24T00:35:01.377Z,-2.28
2019-02-24T00:36:01.313Z,-2.18
2019-02-24T00:37:02.334Z,-2.28
2019-02-24T00:38:01.284Z,-2.26
2019-02-24T00:39:02.305Z,-2.19
2019-02-24T00:40:01.283Z,-2.22
2019-02-24T00:41:01.275Z,-2.25
2019-02-24T00:42:01.245Z,-2.28
2019-02-24T00:43:01.317Z,-2.25
2019-02-24T00:44:01.216Z,-2.22
2019-02-24T00:45:01.306Z,-2.19
2019-02-24T00:46:01.199Z,-2.19
2019-02-24T00:47:01.189Z,-2.26
2019-02-24T00:48:01.250Z,-2.28
2019-02-24T00:49:01.160Z,-2.24
2019-02-24T00:50:01.239Z,-2.29
2019-02-24T00:51:01.141Z,-2.29
2019-02-24T00:52:01.133Z,-2.32
2019-02-24T00:53:01.200Z,-2.29
2019-02-24T00:54:01.104Z,-2.26
2019-02-24T00:55:01.176Z,-2.26
2019-02-24T00:56:01.091Z,-2.28
2019-02-24T00:57:01.079Z,-2.35
2019-02-24T00:58:01.066Z,-2.29
2019-02-24T00:59:01.101Z,-2.40
2019-02-24T01:00:01.058Z,-2.40
2019-02-24T01:01:01.139Z,-2.46
2019-02-24T01:02:01.019Z,-2.37
2019-02-24T01:03:01.003Z,-2.38
2019-02-24T01:04:01.040Z,-2.43
2019-02-24T01:05:00.994Z,-2.35
2019-02-24T01:06:01.071Z,-2.37
2019-02-24T01:07:00.952Z,-2.40
2019-02-24T01:08:00.943Z,-2.41
2019-02-24T01:09:00.976Z,-2.35
2019-02-24T01:10:00.945Z,-2.40
2019-02-24T01:11:01.013Z,-2.28
2019-02-24T01:12:00.904Z,-2.46
2019-02-24T01:13:00.897Z,-2.38
2019-02-24T01:14:00.877Z,-2.41
2019-02-24T01:15:05.051Z,-2.44
2019-02-24T01:16:00.859Z,-2.35
2019-02-24T01:17:00.923Z,-2.43
2019-02-24T01:18:00.841Z,-2.46
2019-02-24T01:19:07.520Z,-2.38
2019-02-24T01:20:00.833Z,-2.46
2019-02-24T01:21:01.820Z,-2.41
2019-02-24T01:22:00.792Z,-2.35
2019-02-24T01:23:00.841Z,-2.44
2019-02-24T01:24:00.777Z,-2.41
2019-02-24T01:25:00.824Z,-2.44
2019-02-24T01:26:00.753Z,-2.41
2019-02-24T01:27:00.818Z,-2.44
2019-02-24T01:28:00.729Z,-2.41
2019-02-24T01:29:00.723Z,-2.47
2019-02-24T01:30:00.726Z,-2.40
2019-02-24T01:31:00.778Z,-2.46
2019-02-24T01:32:00.696Z,-2.40
2019-02-24T01:33:01.733Z,-2.44
2019-02-24T01:34:00.673Z,-2.35
2019-02-24T01:35:00.697Z,-2.37
2019-02-24T01:36:00.640Z,-2.41
2019-02-24T01:37:00.681Z,-2.37
2019-02-24T01:38:00.626Z,-2.37
2019-02-24T01:39:00.612Z,-2.33
2019-02-24T01:40:00.610Z,-2.43
2019-02-24T01:41:01.673Z,-2.33
2019-02-24T01:42:00.578Z,-2.44
2019-02-24T01:43:00.588Z,-2.40
2019-02-24T01:44:00.544Z,-2.37
2019-02-24T01:45:00.564Z,-2.32
2019-02-24T01:46:00.528Z,-2.37
2019-02-24T01:47:01.596Z,-2.47
2019-02-24T01:48:00.498Z,-2.47
2019-02-24T01:49:01.522Z,-2.40
2019-02-24T01:50:01.531Z,-2.44
2019-02-24T01:51:00.471Z,-2.51
2019-02-24T01:52:00.499Z,-2.48
2019-02-24T01:53:00.452Z,-2.44
2019-02-24T01:54:00.555Z,-2.47
2019-02-24T01:55:00.440Z,-2.41
2019-02-24T01:56:00.471Z,-2.56
2019-02-24T01:57:00.413Z,-2.43
2019-02-24T01:58:00.513Z,-2.51
2019-02-24T01:59:00.384Z,-2.59
2019-02-24T02:00:00.387Z,-2.48
2019-02-24T02:01:00.356Z,-2.47
2019-02-24T02:02:07.028Z,-2.48
2019-02-24T02:03:00.336Z,-2.47
2019-02-24T02:04:00.414Z,-2.47
2019-02-24T02:05:00.328Z,-2.47
2019-02-24T02:06:00.348Z,-2.47
2019-02-24T02:07:00.300Z,-2.47
2019-02-24T02:08:01.313Z,-2.44
2019-02-24T02:09:00.270Z,-2.43
2019-02-24T02:10:00.380Z,-2.47
2019-02-24T02:11:00.257Z,-2.56
2019-02-24T02:12:00.253Z,-2.44
2019-02-24T02:13:00.247Z,-2.50
2019-02-24T02:14:00.299Z,-2.47
2019-02-24T02:15:00.314Z,-2.48
2019-02-24T02:16:00.200Z,-2.44
2019-02-24T02:17:00.187Z,-2.38
2019-02-24T02:18:00.266Z,-2.50
2019-02-24T02:19:00.158Z,-2.53
2019-02-24T02:20:00.317Z,-2.43
2019-02-24T02:21:00.161Z,-2.43
2019-02-24T02:22:00.239Z,-2.50
2019-02-24T02:23:00.108Z,-2.41
2019-02-24T02:24:00.170Z,-2.47
2019-02-24T02:25:00.272Z,-2.50
2019-02-24T02:26:00.108Z,-2.46
2019-02-24T02:27:00.080Z,-2.48
2019-02-24T02:28:01.165Z,-2.40
2019-02-24T02:29:00.041Z,-2.44
2019-02-24T02:30:00.357Z,-2.47
2019-02-24T02:31:00.029Z,-2.47
2019-02-24T02:32:00.026Z,-2.55
2019-02-24T02:33:00.088Z,-2.56
2019-02-24T02:33:59.998Z,-2.56
2019-02-24T02:35:00.293Z,-2.55
2019-02-24T02:35:59.984Z,-2.58
2019-02-24T02:36:59.958Z,-2.56
2019-02-24T02:37:59.963Z,-2.58
2019-02-24T02:38:59.990Z,-2.56
2019-02-24T02:39:59.951Z,-2.55
2019-02-24T02:41:00.029Z,-2.55
2019-02-24T02:42:00.009Z,-2.53
2019-02-24T02:42:59.906Z,-2.59
2019-02-24T02:43:59.922Z,-2.59
2019-02-24T02:44:59.934Z,-2.59
2019-02-24T02:45:59.970Z,-2.53
2019-02-24T02:46:59.854Z,-2.62
2019-02-24T02:48:01.951Z,-2.66
2019-02-24T02:48:59.836Z,-2.56
2019-02-24T02:50:00.858Z,-2.59
2019-02-24T02:50:59.827Z,-2.61
2019-02-24T02:51:59.869Z,-2.64
2019-02-24T02:52:59.792Z,-2.61
2019-02-24T02:53:59.828Z,-2.61
2019-02-24T02:54:59.764Z,-2.55
2019-02-24T02:55:59.781Z,-2.59
2019-02-24T02:56:59.744Z,-2.58
2019-02-24T02:57:59.739Z,-2.66
2019-02-24T02:58:59.723Z,-2.59
2019-02-24T03:00:00.732Z,-2.55
2019-02-24T03:00:59.713Z,-2.53
2019-02-24T03:01:59.773Z,-2.53
2019-02-24T03:02:59.736Z,-2.56
2019-02-24T03:03:59.688Z,-2.61
2019-02-24T03:04:59.771Z,-2.61
2019-02-24T03:05:59.677Z,-2.56
2019-02-24T03:07:00.725Z,-2.58
2019-02-24T03:07:59.638Z,-2.47
2019-02-24T03:08:59.665Z,-2.46
2019-02-24T03:09:59.590Z,-2.50
2019-02-24T03:10:59.715Z,-2.53
2019-02-24T03:11:59.590Z,-2.44
2019-02-24T03:12:59.610Z,-2.55
2019-02-24T03:13:59.551Z,-2.61
2019-02-24T03:14:59.633Z,-2.58
2019-02-24T03:15:59.554Z,-2.58
2019-02-24T03:16:59.574Z,-2.58
2019-02-24T03:17:59.516Z,-2.59
2019-02-24T03:18:59.508Z,-2.56
2019-02-24T03:19:59.575Z,-2.64
2019-02-24T03:20:59.508Z,-2.65
2019-02-24T03:21:59.511Z,-2.71
2019-02-24T03:22:59.465Z,-2.68
2019-02-24T03:23:59.452Z,-2.65
2019-02-24T03:24:59.441Z,-2.65
2019-02-24T03:25:59.530Z,-2.59
2019-02-24T03:26:59.424Z,-2.66
2019-02-24T03:27:59.531Z,-2.69
2019-02-24T03:29:04.012Z,-2.77
2019-02-24T03:30:00.476Z,-2.79
2019-02-24T03:30:59.387Z,-2.77
2019-02-24T03:32:06.072Z,-2.80
2019-02-24T03:32:59.343Z,-2.82
2019-02-24T03:34:00.450Z,-2.79
2019-02-24T03:34:59.328Z,-2.83
2019-02-24T03:35:59.405Z,-2.87
2019-02-24T03:36:59.309Z,-2.83
2019-02-24T03:38:00.320Z,-2.87
2019-02-24T03:38:59.280Z,-2.86
2019-02-24T03:39:59.275Z,-2.86
2019-02-24T03:40:59.337Z,-2.84
2019-02-24T03:41:59.249Z,-2.83
2019-02-24T03:42:59.348Z,-2.83
2019-02-24T03:43:59.222Z,-2.83
2019-02-24T03:44:59.221Z,-2.89
2019-02-24T03:45:59.221Z,-2.89
2019-02-24T03:46:59.305Z,-2.89
2019-02-24T03:47:59.205Z,-2.90
2019-02-24T03:48:59.245Z,-2.86
2019-02-24T03:49:59.163Z,-2.90
2019-02-24T03:50:59.232Z,-2.83
2019-02-24T03:51:59.152Z,-2.84
2019-02-24T03:52:59.219Z,-2.87
2019-02-24T03:53:59.124Z,-2.84
2019-02-24T03:54:59.148Z,-2.80
2019-02-24T03:55:59.114Z,-2.90
2019-02-24T03:56:59.190Z,-2.84
2019-02-24T03:57:59.079Z,-2.90
2019-02-24T03:58:59.127Z,-2.90
2019-02-24T03:59:59.066Z,-2.87
2019-02-24T04:00:59.064Z,-2.86
2019-02-24T04:01:59.036Z,-2.83
2019-02-24T04:02:59.092Z,-2.83
2019-02-24T04:03:59.022Z,-2.87
2019-02-24T04:04:59.025Z,-2.90
2019-02-24T04:05:59.043Z,-2.83
2019-02-24T04:06:58.989Z,-2.94
2019-02-24T04:07:59.036Z,-2.89
2019-02-24T04:08:58.950Z,-3.02
2019-02-24T04:09:58.965Z,-2.97
2019-02-24T04:10:58.959Z,-2.95
2019-02-24T04:11:58.992Z,-3.02
2019-02-24T04:12:58.909Z,-2.97
2019-02-24T04:13:58.949Z,-3.00
2019-02-24T04:14:58.892Z,-2.93
2019-02-24T04:15:58.922Z,-2.95
2019-02-24T04:16:58.873Z,-2.98
2019-02-24T04:17:58.917Z,-2.94
2019-02-24T04:18:58.845Z,-2.95
2019-02-24T04:19:58.944Z,-2.93
2019-02-24T04:20:58.843Z,-2.93
2019-02-24T04:21:58.814Z,-3.00
2019-02-24T04:22:58.808Z,-3.04
2019-02-24T04:23:58.826Z,-3.07
2019-02-24T04:24:58.777Z,-3.04
2019-02-24T04:25:59.826Z,-3.08
2019-02-24T04:26:58.839Z,-3.07
2019-02-24T04:27:58.756Z,-3.01
2019-02-24T04:28:58.778Z,-3.07
2019-02-24T04:29:58.740Z,-3.07
2019-02-24T04:30:58.850Z,-3.07
2019-02-24T04:31:58.709Z,-3.01
2019-02-24T04:32:58.739Z,-3.07
2019-02-24T04:33:58.682Z,-3.07
2019-02-24T04:34:58.762Z,-3.12
2019-02-24T04:35:58.684Z,-3.10
2019-02-24T04:36:58.724Z,-3.12
2019-02-24T04:37:58.650Z,-3.07
2019-02-24T04:38:58.751Z,-3.10
2019-02-24T04:39:58.631Z,-3.10
2019-02-24T04:40:58.730Z,-3.08
2019-02-24T04:41:58.592Z,-3.16
2019-02-24T04:42:58.590Z,-3.12
2019-02-24T04:43:58.569Z,-3.07
2019-02-24T04:44:58.644Z,-3.10
2019-02-24T04:45:58.563Z,-3.08
2019-02-24T04:46:58.583Z,-3.12
2019-02-24T04:47:58.654Z,-3.05
2019-02-24T04:48:58.530Z,-3.10
2019-02-24T04:49:59.612Z,-3.15
2019-02-24T04:50:58.527Z,-3.07
2019-02-24T04:51:58.524Z,-3.16
2019-02-24T04:52:58.474Z,-3.22
2019-02-24T04:53:58.556Z,-3.18
2019-02-24T04:54:58.466Z,-3.19
2019-02-24T04:55:58.486Z,-3.13
2019-02-24T04:56:58.445Z,-3.13
2019-02-24T04:57:58.537Z,-3.12
2019-02-24T04:58:58.423Z,-3.18
2019-02-24T04:59:58.468Z,-3.21
2019-02-24T05:00:58.387Z,-3.21
2019-02-24T05:01:58.440Z,-3.21
2019-02-24T05:02:58.371Z,-3.26
2019-02-24T05:03:58.368Z,-3.25
2019-02-24T05:04:58.352Z,-3.28
2019-02-24T05:05:58.372Z,-3.26
2019-02-24T05:06:58.349Z,-3.28
2019-02-24T05:07:59.329Z,-3.25
2019-02-24T05:08:58.382Z,-3.25
2019-02-24T05:09:58.294Z,-3.26
2019-02-24T05:10:58.309Z,-3.26
2019-02-24T05:11:58.288Z,-3.28
2019-02-24T05:12:58.355Z,-3.19
2019-02-24T05:13:58.265Z,-3.19
2019-02-24T05:14:58.278Z,-3.25
2019-02-24T05:15:58.228Z,-3.34
2019-02-24T05:16:58.268Z,-3.25
2019-02-24T05:17:58.214Z,-3.28
2019-02-24T05:18:58.255Z,-3.33
2019-02-24T05:19:58.190Z,-3.19
2019-02-24T05:20:58.190Z,-3.25
2019-02-24T05:21:58.176Z,-3.18
2019-02-24T05:22:58.222Z,-3.23
2019-02-24T05:23:58.134Z,-3.16
2019-02-24T05:24:58.137Z,-3.19
2019-02-24T05:25:58.228Z,-3.15
2019-02-24T05:26:58.115Z,-3.08
2019-02-24T05:27:59.188Z,-3.25
2019-02-24T05:28:58.087Z,-3.15
2019-02-24T05:29:58.067Z,-3.13
2019-02-24T05:30:58.060Z,-3.15
2019-02-24T05:31:58.084Z,-3.16
2019-02-24T05:32:58.059Z,-3.15
2019-02-24T05:33:58.073Z,-3.13
2019-02-24T05:34:58.030Z,-3.08
2019-02-24T05:35:58.121Z,-3.16
2019-02-24T05:36:58.022Z,-3.13
2019-02-24T05:37:58.041Z,-3.25
2019-02-24T05:38:57.976Z,-3.21
2019-02-24T05:39:57.972Z,-3.25
2019-02-24T05:40:58.047Z,-3.28
2019-02-24T05:41:57.967Z,-3.23
2019-02-24T05:42:59.006Z,-3.28
2019-02-24T05:43:57.952Z,-3.28
2019-02-24T05:44:58.016Z,-3.34
2019-02-24T05:45:57.994Z,-3.30
2019-02-24T05:46:57.907Z,-3.37
2019-02-24T05:47:57.919Z,-3.30
2019-02-24T05:48:57.879Z,-3.39
2019-02-24T05:49:57.967Z,-3.34
2019-02-24T05:50:57.850Z,-3.31
2019-02-24T05:51:57.932Z,-3.30
2019-02-24T05:52:57.852Z,-3.43
2019-02-24T05:53:57.944Z,-3.43
2019-02-24T05:54:57.796Z,-3.43
2019-02-24T05:55:57.865Z,-3.43
2019-02-24T05:56:57.793Z,-3.40
2019-02-24T05:57:57.797Z,-3.43
2019-02-24T05:58:57.755Z,-3.33
2019-02-24T05:59:57.837Z,-3.30
2019-02-24T06:00:57.736Z,-3.34
2019-02-24T06:01:57.739Z,-3.37
2019-02-24T06:02:57.739Z,-3.33
2019-02-24T06:03:57.701Z,-3.37
2019-02-24T06:04:57.778Z,-3.41
2019-02-24T06:05:57.700Z,-3.34
2019-02-24T06:06:57.701Z,-3.33
2019-02-24T06:07:57.662Z,-3.30
2019-02-24T06:08:57.744Z,-3.25
2019-02-24T06:09:57.652Z,-3.33
2019-02-24T06:10:57.686Z,-3.31
2019-02-24T06:11:57.645Z,-3.33
2019-02-24T06:12:57.615Z,-3.25
2019-02-24T06:13:57.604Z,-3.28
2019-02-24T06:14:57.665Z,-3.30
2019-02-24T06:15:57.578Z,-3.30
2019-02-24T06:16:57.639Z,-3.28
2019-02-24T06:17:57.557Z,-3.28
2019-02-24T06:18:58.649Z,-3.25
2019-02-24T06:19:57.530Z,-3.31
2019-02-24T06:20:57.559Z,-3.33
2019-02-24T06:21:57.536Z,-3.25
2019-02-24T06:22:57.500Z,-3.30
2019-02-24T06:23:57.567Z,-3.28
2019-02-24T06:24:57.500Z,-3.23
2019-02-24T06:25:57.510Z,-3.33
2019-02-24T06:26:57.475Z,-3.25
2019-02-24T06:27:57.461Z,-3.31
2019-02-24T06:28:57.436Z,-3.28
2019-02-24T06:30:04.455Z,-3.28
2019-02-24T06:30:58.406Z,-3.21
2019-02-24T06:31:57.450Z,-3.21
2019-02-24T06:32:57.387Z,-3.19
2019-02-24T06:33:57.394Z,-3.21
2019-02-24T06:34:57.410Z,-3.16
2019-02-24T06:35:57.362Z,-3.15
2019-02-24T06:36:57.389Z,-3.18
2019-02-24T06:37:57.329Z,-3.19
2019-02-24T06:38:57.325Z,-3.13
2019-02-24T06:39:58.392Z,-3.19
2019-02-24T06:40:57.304Z,-3.22
2019-02-24T06:41:57.328Z,-3.12
2019-02-24T06:42:57.284Z,-3.19
2019-02-24T06:43:57.281Z,-3.13
2019-02-24T06:44:57.284Z,-3.18
2019-02-24T06:45:57.254Z,-3.13
2019-02-24T06:46:58.337Z,-3.10
2019-02-24T06:47:57.225Z,-3.08
2019-02-24T06:48:57.230Z,-3.02
2019-02-24T06:49:57.210Z,-3.04
2019-02-24T06:50:57.300Z,-3.13
2019-02-24T06:51:57.203Z,-3.05
2019-02-24T06:52:57.229Z,-3.04
2019-02-24T06:53:57.162Z,-3.01
2019-02-24T06:54:57.171Z,-3.00
2019-02-24T06:55:57.141Z,-2.93
2019-02-24T06:56:57.274Z,-3.00
2019-02-24T06:57:57.128Z,-3.02
2019-02-24T06:58:57.144Z,-3.02
2019-02-24T06:59:57.111Z,-2.97
2019-02-24T07:00:57.175Z,-3.00
2019-02-24T07:01:57.088Z,-2.90
2019-02-24T07:02:57.155Z,-2.94
2019-02-24T07:03:57.060Z,-2.83
2019-02-24T07:04:57.038Z,-2.90
2019-02-24T07:05:57.031Z,-2.84
2019-02-24T07:06:57.088Z,-2.84
2019-02-24T07:07:57.020Z,-2.87
2019-02-24T07:08:58.042Z,-2.90
2019-02-24T07:09:56.976Z,-2.80
2019-02-24T07:10:57.053Z,-2.83
2019-02-24T07:11:56.961Z,-2.80
2019-02-24T07:12:58.082Z,-2.83
2019-02-24T07:13:56.943Z,-2.80
2019-02-24T07:14:56.933Z,-2.82
2019-02-24T07:15:56.935Z,-2.90
2019-02-24T07:16:57.989Z,-2.89
2019-02-24T07:17:56.917Z,-2.84
2019-02-24T07:19:03.458Z,-2.86
2019-02-24T07:19:56.866Z,-2.84
2019-02-24T07:20:56.872Z,-2.87
2019-02-24T07:21:58.950Z,-2.90
2019-02-24T07:22:56.867Z,-2.90
2019-02-24T07:23:58.887Z,-2.77
2019-02-24T07:24:56.837Z,-2.82
2019-02-24T07:25:56.828Z,-2.71
2019-02-24T07:26:56.820Z,-2.72
2019-02-24T07:27:56.861Z,-2.69
2019-02-24T07:28:56.768Z,-2.71
2019-02-24T07:29:56.850Z,-2.65
2019-02-24T07:30:56.819Z,-2.66
2019-02-24T07:31:56.769Z,-2.59
2019-02-24T07:32:56.805Z,-2.58
2019-02-24T07:33:56.737Z,-2.53
2019-02-24T07:34:56.787Z,-2.58
2019-02-24T07:35:56.759Z,-2.55
2019-02-24T07:36:56.697Z,-2.58
2019-02-24T07:37:57.792Z,-2.51
2019-02-24T07:38:56.682Z,-2.47
2019-02-24T07:39:56.724Z,-2.44
2019-02-24T07:40:56.652Z,-2.48
2019-02-24T07:41:56.663Z,-2.40
2019-02-24T07:42:56.643Z,-2.48
2019-02-24T07:43:56.704Z,-2.40
2019-02-24T07:44:56.595Z,-2.44
2019-02-24T07:45:56.633Z,-2.37
2019-02-24T07:46:56.584Z,-2.35
2019-02-24T07:47:56.616Z,-2.32
2019-02-24T07:48:56.565Z,-2.35
2019-02-24T07:49:56.616Z,-2.29
2019-02-24T07:50:56.559Z,-2.25
2019-02-24T07:51:56.526Z,-2.22
2019-02-24T07:52:56.547Z,-2.13
2019-02-24T07:53:56.589Z,-1.95
2019-02-24T07:54:56.509Z,-1.82
2019-02-24T07:55:56.508Z,-1.62
2019-02-24T07:56:57.509Z,-1.57
2019-02-24T07:57:56.489Z,-1.47
2019-02-24T07:58:56.539Z,-1.39
2019-02-24T07:59:56.431Z,-1.18
2019-02-24T08:00:56.460Z,-1.08
2019-02-24T08:01:56.435Z,-0.97
2019-02-24T08:02:58.491Z,-0.78
2019-02-24T08:03:56.412Z,-0.63
2019-02-24T08:04:56.431Z,-0.49
2019-02-24T08:05:56.392Z,-0.34
2019-02-24T08:06:56.457Z,-0.30
2019-02-24T08:07:56.382Z,-0.19
2019-02-24T08:09:02.939Z,-0.17
2019-02-24T08:09:56.339Z,-0.06
2019-02-24T08:10:56.328Z,0.01
2019-02-24T08:11:56.310Z,0.19
2019-02-24T08:12:56.309Z,0.30
2019-02-24T08:13:56.330Z,0.35
2019-02-24T08:14:56.284Z,0.30
2019-02-24T08:15:57.285Z,0.26
2019-02-24T08:16:56.257Z,0.26
2019-02-24T08:17:56.257Z,0.38
2019-02-24T08:18:56.238Z,0.64
2019-02-24T08:19:56.346Z,0.72
2019-02-24T08:20:56.308Z,0.81
2019-02-24T08:21:56.278Z,0.78
2019-02-24T08:22:56.288Z,0.75
2019-02-24T08:23:56.197Z,0.71
2019-02-24T08:24:56.278Z,0.74
2019-02-24T08:25:56.158Z,0.82
2019-02-24T08:26:56.220Z,0.89
2019-02-24T08:27:57.269Z,0.98
2019-02-24T08:28:56.121Z,1.32
2019-02-24T08:29:56.230Z,1.63
2019-02-24T08:30:56.121Z,1.68
2019-02-24T08:31:56.165Z,1.61
2019-02-24T08:32:56.171Z,1.61
2019-02-24T08:33:56.082Z,1.75
2019-02-24T08:34:56.173Z,1.65
2019-02-24T08:35:56.058Z,1.57
2019-02-24T08:36:56.097Z,1.70
2019-02-24T08:37:56.053Z,1.71
2019-02-24T08:38:56.044Z,1.79
2019-02-24T08:39:56.015Z,1.85
2019-02-24T08:40:56.075Z,1.90
2019-02-24T08:41:56.003Z,1.93
2019-02-24T08:42:56.055Z,1.92
2019-02-24T08:43:55.976Z,2.19
2019-02-24T08:44:56.966Z,2.41
2019-02-24T08:45:55.941Z,2.65
2019-02-24T08:46:55.997Z,3.13
2019-02-24T08:47:55.947Z,3.35
2019-02-24T08:48:55.907Z,3.59
2019-02-24T08:49:55.997Z,3.56
2019-02-24T08:50:55.899Z,3.67
2019-02-24T08:51:55.919Z,3.70
2019-02-24T08:52:55.880Z,3.84
2019-02-24T08:53:55.874Z,3.81
2019-02-24T08:54:55.930Z,3.86
2019-02-24T08:55:55.830Z,3.99
2019-02-24T08:56:55.861Z,3.96
2019-02-24T08:57:55.862Z,4.04
2019-02-24T08:58:55.801Z,4.62
2019-02-24T09:00:02.522Z,5.26
2019-02-24T09:00:55.771Z,6.19
2019-02-24T09:01:55.848Z,6.79
2019-02-24T09:02:55.835Z,7.23
2019-02-24T09:03:55.743Z,7.60
2019-02-24T09:04:55.734Z,7.73
2019-02-24T09:05:56.795Z,7.21
2019-02-24T09:06:55.724Z,6.71
2019-02-24T09:08:02.566Z,6.11
2019-02-24T09:08:55.906Z,5.60
2019-02-24T09:09:55.689Z,5.27
2019-02-24T09:10:56.738Z,5.14
2019-02-24T09:11:55.663Z,4.80
2019-02-24T09:12:55.743Z,4.61
2019-02-24T09:13:55.769Z,4.25
2019-02-24T09:14:55.631Z,3.99
2019-02-24T09:15:55.656Z,3.98
2019-02-24T09:16:55.616Z,3.95
2019-02-24T09:17:55.680Z,5.04
2019-02-24T09:18:55.606Z,6.06
2019-02-24T09:19:55.629Z,7.11
2019-02-24T09:20:55.564Z,7.79
2019-02-24T09:21:56.576Z,7.32
2019-02-24T09:22:55.539Z,6.86
2019-02-24T09:23:56.558Z,6.55
2019-02-24T09:24:55.530Z,6.11
2019-02-24T09:25:56.550Z,5.85
2019-02-24T09:26:55.508Z,5.65
2019-02-24T09:27:57.608Z,5.29
2019-02-24T09:28:55.504Z,4.88
2019-02-24T09:29:55.471Z,4.69
2019-02-24T09:31:00.788Z,4.65
2019-02-24T09:31:55.449Z,4.38
2019-02-24T09:32:55.601Z,4.11
2019-02-24T09:33:55.433Z,3.93
2019-02-24T09:34:55.417Z,3.89
2019-02-24T09:35:55.503Z,3.78
2019-02-24T09:36:55.401Z,3.90
2019-02-24T09:37:55.542Z,3.90
2019-02-24T09:38:55.388Z,4.00
2019-02-24T09:39:55.357Z,3.81
2019-02-24T09:40:55.462Z,3.92
2019-02-24T09:41:55.327Z,3.88
2019-02-24T09:42:55.489Z,3.71
2019-02-24T09:43:55.359Z,3.77
2019-02-24T09:44:55.299Z,3.80
2019-02-24T09:45:56.409Z,3.86
2019-02-24T09:46:55.281Z,3.81
2019-02-24T09:47:56.450Z,3.84
2019-02-24T09:48:55.255Z,3.84
2019-02-24T09:49:55.282Z,3.74
2019-02-24T09:50:55.331Z,3.81
2019-02-24T09:51:55.223Z,3.70
2019-02-24T09:52:56.403Z,3.70
2019-02-24T09:53:55.214Z,3.70
2019-02-24T09:54:55.222Z,3.68
2019-02-24T09:55:55.156Z,3.60
2019-02-24T09:56:55.344Z,3.46
2019-02-24T09:57:55.156Z,3.37
2019-02-24T09:58:55.325Z,3.45
2019-02-24T09:59:55.138Z,3.60
2019-02-24T10:00:55.216Z,3.70
2019-02-24T10:01:55.118Z,3.81
2019-02-24T10:02:55.248Z,3.82
2019-02-24T10:03:55.107Z,3.93
2019-02-24T10:04:55.187Z,4.00
2019-02-24T10:05:55.078Z,3.93
2019-02-24T10:06:55.214Z,4.02
2019-02-24T10:07:55.053Z,4.08
2019-02-24T10:08:55.209Z,4.16
2019-02-24T10:09:55.029Z,4.25
2019-02-24T10:10:55.015Z,4.31
2019-02-24T10:11:57.130Z,4.35
2019-02-24T10:12:54.998Z,4.50
2019-02-24T10:13:58.612Z,4.50
2019-02-24T10:14:54.961Z,4.64
2019-02-24T10:15:54.950Z,4.68
2019-02-24T10:16:54.953Z,4.75
2019-02-24T10:18:03.064Z,4.79
2019-02-24T10:18:54.933Z,4.74
2019-02-24T10:20:02.573Z,4.86
2019-02-24T10:20:55.065Z,4.87
2019-02-24T10:21:54.882Z,5.02
2019-02-24T10:22:56.022Z,5.02
2019-02-24T10:23:54.875Z,5.11
2019-02-24T10:24:54.935Z,5.17
2019-02-24T10:25:54.848Z,5.24
2019-02-24T10:26:55.995Z,5.40
2019-02-24T10:27:54.816Z,5.48
2019-02-24T10:29:00.066Z,5.58
2019-02-24T10:29:54.806Z,5.65
2019-02-24T10:30:54.948Z,5.74
2019-02-24T10:31:54.789Z,5.83
2019-02-24T10:32:54.878Z,5.74
2019-02-24T10:33:54.779Z,5.78
2019-02-24T10:34:54.810Z,5.85
2019-02-24T10:35:54.733Z,5.80
2019-02-24T10:36:54.731Z,5.90
2019-02-24T10:37:54.726Z,6.03
2019-02-24T10:38:55.871Z,6.16
2019-02-24T10:39:54.692Z,6.17
2019-02-24T10:40:54.826Z,6.32
2019-02-24T10:41:54.803Z,6.35
2019-02-24T10:42:54.707Z,6.42
2019-02-24T10:43:54.784Z,6.51
2019-02-24T10:44:54.635Z,6.54
2019-02-24T10:45:54.778Z,6.63
2019-02-24T10:46:54.606Z,6.58
2019-02-24T10:47:54.706Z,6.57
2019-02-24T10:49:03.070Z,6.55
2019-02-24T10:49:55.577Z,6.68
2019-02-24T10:50:54.719Z,6.65
2019-02-24T10:51:54.557Z,6.83
2019-02-24T10:52:54.548Z,6.90
2019-02-24T10:53:54.660Z,6.93
2019-02-24T10:54:54.528Z,6.96
2019-02-24T10:55:54.649Z,7.14
2019-02-24T10:56:54.499Z,7.29
2019-02-24T10:57:54.490Z,7.39
2019-02-24T10:58:54.602Z,7.39
2019-02-24T10:59:54.471Z,7.51
2019-02-24T11:00:56.531Z,7.55
2019-02-24T11:01:54.462Z,7.60
2019-02-24T11:02:54.431Z,7.62
2019-02-24T11:03:54.432Z,7.76
2019-02-24T11:04:56.503Z,7.79
2019-02-24T11:05:54.413Z,7.89
2019-02-24T11:06:54.492Z,7.96
2019-02-24T11:07:54.394Z,8.03
2019-02-24T11:08:59.587Z,8.02
2019-02-24T11:09:54.345Z,8.10
2019-02-24T11:10:55.485Z,8.13
2019-02-24T11:11:54.326Z,8.14
2019-02-24T11:13:01.057Z,8.12
2019-02-24T11:13:54.306Z,8.10
2019-02-24T11:14:58.577Z,8.03
2019-02-24T11:15:54.277Z,8.20
2019-02-24T11:17:02.047Z,8.12
2019-02-24T11:17:54.260Z,8.18
2019-02-24T11:18:54.249Z,8.18
2019-02-24T11:19:54.264Z,8.25
2019-02-24T11:20:54.340Z,8.25
2019-02-24T11:21:54.213Z,8.36
2019-02-24T11:22:54.281Z,8.37
2019-02-24T11:23:54.351Z,8.46
2019-02-24T11:24:54.292Z,8.60
2019-02-24T11:25:55.312Z,8.64
2019-02-24T11:26:54.153Z,8.71
2019-02-24T11:27:54.224Z,8.76
2019-02-24T11:28:54.144Z,8.96
2019-02-24T11:29:54.214Z,9.06
2019-02-24T11:30:54.145Z,9.04
2019-02-24T11:31:54.195Z,9.26
2019-02-24T11:32:54.096Z,9.23
2019-02-24T11:33:54.236Z,9.20
2019-02-24T11:34:54.078Z,9.20
2019-02-24T11:35:54.167Z,9.40
2019-02-24T11:36:54.059Z,9.30
2019-02-24T11:37:54.108Z,9.24
2019-02-24T11:38:54.031Z,9.40
2019-02-24T11:39:54.039Z,9.53
2019-02-24T11:40:54.009Z,9.48
2019-02-24T11:41:54.082Z,9.50
2019-02-24T11:42:53.990Z,9.50
2019-02-24T11:43:54.110Z,9.48
2019-02-24T11:44:54.124Z,9.41
2019-02-24T11:45:53.953Z,9.41
2019-02-24T11:46:54.013Z,9.27
2019-02-24T11:47:53.932Z,9.32
2019-02-24T11:48:54.052Z,9.56
2019-02-24T11:49:53.923Z,9.81
2019-02-24T11:50:55.015Z,10.01
2019-02-24T11:51:53.884Z,10.07
2019-02-24T11:52:54.025Z,10.29
2019-02-24T11:53:53.867Z,10.34
2019-02-24T11:54:54.006Z,10.34
2019-02-24T11:55:53.831Z,10.34
2019-02-24T11:56:53.893Z,10.31
2019-02-24T11:57:53.807Z,10.22
2019-02-24T11:58:53.927Z,10.14
2019-02-24T11:59:53.818Z,10.13
2019-02-24T12:00:53.768Z,10.13
2019-02-24T12:01:53.755Z,10.06
2019-02-24T12:02:53.899Z,9.95
2019-02-24T12:03:53.743Z,9.85
2019-02-24T12:04:53.877Z,9.77
2019-02-24T12:05:53.710Z,9.88
2019-02-24T12:06:53.771Z,9.83
2019-02-24T12:07:53.689Z,9.86
2019-02-24T12:08:53.810Z,9.80
2019-02-24T12:09:53.683Z,9.88
2019-02-24T12:10:53.743Z,9.99
2019-02-24T12:11:53.643Z,10.06
2019-02-24T12:12:53.784Z,10.02
2019-02-24T12:13:53.635Z,10.13
2019-02-24T12:14:53.765Z,10.13
2019-02-24T12:15:54.882Z,10.10
2019-02-24T12:16:53.588Z,10.17
2019-02-24T12:17:53.726Z,10.22
2019-02-24T12:18:53.567Z,10.32
2019-02-24T12:19:54.728Z,10.28
2019-02-24T12:20:53.568Z,10.42
2019-02-24T12:21:53.538Z,10.49
2019-02-24T12:22:53.659Z,10.36
2019-02-24T12:23:53.519Z,10.49
2019-02-24T12:24:53.650Z,10.44
2019-02-24T12:25:53.501Z,10.35
2019-02-24T12:26:53.491Z,10.44
2019-02-24T12:27:53.471Z,10.42
2019-02-24T12:28:53.572Z,10.57
2019-02-24T12:29:53.462Z,10.66
2019-02-24T12:30:53.515Z,10.72
2019-02-24T12:31:56.622Z,10.73
2019-02-24T12:32:53.427Z,10.72
2019-02-24T12:33:53.514Z,10.73
2019-02-24T12:34:53.415Z,10.80
2019-02-24T12:35:54.475Z,10.83
2019-02-24T12:36:53.371Z,10.78
2019-02-24T12:37:53.366Z,10.72
2019-02-24T12:38:54.476Z,10.63
2019-02-24T12:39:53.357Z,10.66
2019-02-24T12:41:00.036Z,10.70
2019-02-24T12:41:53.314Z,10.65
2019-02-24T12:42:54.594Z,10.58
2019-02-24T12:43:53.282Z,10.62
2019-02-24T12:44:57.604Z,10.52
2019-02-24T12:45:53.265Z,10.57
2019-02-24T12:46:53.395Z,10.69
2019-02-24T12:47:53.250Z,10.73
2019-02-24T12:48:53.325Z,10.75
2019-02-24T12:49:53.238Z,10.80
2019-02-24T12:50:53.258Z,10.81
2019-02-24T12:51:53.197Z,10.88
2019-02-24T12:52:53.298Z,11.01
2019-02-24T12:53:53.183Z,11.02
2019-02-24T12:54:53.285Z,10.94
2019-02-24T12:55:53.146Z,10.99
2019-02-24T12:56:53.275Z,10.91
2019-02-24T12:57:53.121Z,10.87
2019-02-24T12:58:53.219Z,10.93
2019-02-24T12:59:53.117Z,11.11